Chennai, India
Current Conditions -  °F | °C
As of 12:40 AM on Friday 30 Jan 2015 (Local Time) from VOMM Reporting Station
Few Clouds Few Clouds  
Wind Chill: 75°   Ceiling: Unl
Heat Index: 75°   Visibility: 4mi
Dew Point: 70°   Wind: 7mph
Humidity: 83%   Direction: 60°ENE
Pressure: 29.94"   Gusts: NA
Location:  13.06°N, 80.25°E
Report Text: VOMM 291940Z 06006KT 6000 FEW020 24/21 Q1014 NOSIG
Loading
Personal Weather Stations






























Interactive Weather Map New forecast layout! Learn more

10-Day Weather Forecast

Advertisements
Track Severe Weather on mobile